East Walpole, Massachusetts
Current Conditions -  °F | °C
As of 10:53 PM on Tuesday 25 Nov 2014 (Local Time) from KOWD Reporting Station
Clear Clear  
Wind Chill: 38°   Ceiling: Unl
Heat Index: 38°   Visibility: 10mi
Dew Point: 32°   Wind: 0mph
Humidity: 79%   Direction: NA
Pressure: 30.1"   Gusts: NA
Location:  42.16°N, 71.21°W
Report Text: KOWD 260353Z AUTO 00000KT 10SM CLR 03/00 A3010 RMK AO2 SLP193 T00330000
Loading
Personal Weather Stations






























Interactive Weather Map New forecast layout! Learn more

10-Day Weather Forecast

Advertisements
Track Severe Weather on mobile